To NAV CANADA Home Page Login to a new session Search on AWWS site Feedback and Comments Disclaimer Vers la page française équivalente Tips FAQ What's new on the site To the Forecasts and Observations / NOTAM section To "File a Flight Plan" website Publications and other links Update of the User's profile FIC Telephone Numbers My Weather Data Folder Route Weather Data Regional Weather Data Local Weather Data To the Forecasts and Observations / NOTAM section
Request Generated 02/24/2017 at 03:37:03 UTC . Weather information available at that time is displayed.

METAR/TAF

OTTAWA/GATINEAU/QC    

LWIS CYND 240300Z AUTO 30006G15KT 05/01 A2984=
METAR CYND 240200Z 32005KT 280V340 15SM BKN020 06/03 A2981 RMK SC7
LAST STFD OBS/NEXT 241200 UTC PRESRR SLP099=
METAR CYND 240100Z 30009KT 15SM SCT041 07/03 A2977 RMK SC4 PRESRR
SLP086=

*** REMARK        : Forecast period has ended; this was the last TAF issued
*** REMARQUE : La période de prévision est échue; ceci était le dernier TAF qui a été émis
TAF CYND 232338Z 2400/2402 30010KT P6SM BKN030 TEMPO 2400/2402 3SM BR
BKN015
RMK NXT FCST WILL BE ISSUED AT 241345Z=
Your time UTC time
Weather data provided by Environment Canada and NAV CANADA